sensor_id;sensor_type;location;lat;lon;timestamp;pressure;altitude;pressure_sealevel;temperature;humidity
20210;BME280;10264;53.178;5.840;2022-07-05T00:01:40;101927.47;;;14.12;100.00
20210;BME280;10264;53.178;5.840;2022-07-05T00:04:06;101917.59;;;14.17;100.00
20210;BME280;10264;53.178;5.840;2022-07-05T00:06:33;101923.38;;;14.02;100.00
20210;BME280;10264;53.178;5.840;2022-07-05T00:08:59;101921.25;;;14.13;100.00
20210;BME280;10264;53.178;5.840;2022-07-05T00:11:26;101919.81;;;14.03;100.00
20210;BME280;10264;53.178;5.840;2022-07-05T00:13:52;101916.16;;;14.07;100.00
20210;BME280;10264;53.178;5.840;2022-07-05T00:16:19;101919.94;;;14.00;100.00
20210;BME280;10264;53.178;5.840;2022-07-05T00:18:46;101917.13;;;13.77;100.00
20210;BME280;10264;53.178;5.840;2022-07-05T00:21:12;101917.19;;;13.75;100.00
20210;BME280;10264;53.178;5.840;2022-07-05T00:23:39;101925.25;;;13.71;100.00
20210;BME280;10264;53.178;5.840;2022-07-05T00:26:05;101931.28;;;13.76;100.00
20210;BME280;10264;53.178;5.840;2022-07-05T00:28:31;101933.03;;;13.75;100.00
20210;BME280;10264;53.178;5.840;2022-07-05T00:30:58;101935.00;;;13.69;100.00
20210;BME280;10264;53.178;5.840;2022-07-05T00:33:24;101925.53;;;13.62;100.00
20210;BME280;10264;53.178;5.840;2022-07-05T00:35:51;101934.41;;;13.59;100.00
20210;BME280;10264;53.178;5.840;2022-07-05T00:38:17;101934.41;;;13.59;100.00
20210;BME280;10264;53.178;5.840;2022-07-05T00:40:44;101941.63;;;13.52;100.00
20210;BME280;10264;53.178;5.840;2022-07-05T00:43:10;101953.88;;;13.57;100.00
20210;BME280;10264;53.178;5.840;2022-07-05T00:45:37;101963.59;;;13.54;100.00
20210;BME280;10264;53.178;5.840;2022-07-05T00:48:03;101963.72;;;13.51;100.00
20210;BME280;10264;53.178;5.840;2022-07-05T00:50:30;101969.72;;;13.57;100.00
20210;BME280;10264;53.178;5.840;2022-07-05T00:52:57;101974.53;;;13.42;100.00
20210;BME280;10264;53.178;5.840;2022-07-05T00:55:24;101992.72;;;13.22;100.00
20210;BME280;10264;53.178;5.840;2022-07-05T00:57:50;101996.50;;;13.12;100.00
20210;BME280;10264;53.178;5.840;2022-07-05T01:00:17;102018.72;;;13.03;100.00
20210;BME280;10264;53.178;5.840;2022-07-05T01:02:44;102026.63;;;13.03;100.00
20210;BME280;10264;53.178;5.840;2022-07-05T01:05:11;102046.94;;;13.00;100.00
20210;BME280;10264;53.178;5.840;2022-07-05T01:07:38;102062.91;;;12.95;100.00
20210;BME280;10264;53.178;5.840;2022-07-05T01:10:04;102079.69;;;12.93;100.00
20210;BME280;10264;53.178;5.840;2022-07-05T01:12:31;102098.41;;;12.84;100.00
20210;BME280;10264;53.178;5.840;2022-07-05T01:14:58;102110.81;;;12.80;100.00
20210;BME280;10264;53.178;5.840;2022-07-05T01:17:25;102140.00;;;12.73;100.00
20210;BME280;10264;53.178;5.840;2022-07-05T01:19:52;102143.72;;;12.65;100.00
20210;BME280;10264;53.178;5.840;2022-07-05T01:22:19;102159.34;;;12.73;100.00
20210;BME280;10264;53.178;5.840;2022-07-05T01:24:48;102172.63;;;12.70;100.00
20210;BME280;10264;53.178;5.840;2022-07-05T01:27:15;102171.00;;;12.63;100.00
20210;BME280;10264;53.178;5.840;2022-07-05T01:29:42;102190.28;;;12.66;100.00
20210;BME280;10264;53.178;5.840;2022-07-05T01:32:09;102198.41;;;12.57;100.00
20210;BME280;10264;53.178;5.840;2022-07-05T01:34:38;102208.28;;;12.48;100.00
20210;BME280;10264;53.178;5.840;2022-07-05T01:37:05;102226.72;;;12.49;100.00
20210;BME280;10264;53.178;5.840;2022-07-05T01:39:32;102246.88;;;12.52;100.00
20210;BME280;10264;53.178;5.840;2022-07-05T01:41:59;102265.31;;;12.53;100.00
20210;BME280;10264;53.178;5.840;2022-07-05T01:44:26;102271.66;;;12.45;100.00
20210;BME280;10264;53.178;5.840;2022-07-05T01:46:55;102291.88;;;12.44;100.00
20210;BME280;10264;53.178;5.840;2022-07-05T01:49:24;102312.28;;;12.36;100.00
20210;BME280;10264;53.178;5.840;2022-07-05T01:51:55;102342.13;;;12.38;100.00
20210;BME280;10264;53.178;5.840;2022-07-05T01:54:23;102364.91;;;12.42;100.00
20210;BME280;10264;53.178;5.840;2022-07-05T01:56:50;102384.31;;;12.40;100.00
20210;BME280;10264;53.178;5.840;2022-07-05T01:59:17;102392.28;;;12.37;100.00
20210;BME280;10264;53.178;5.840;2022-07-05T02:01:44;102414.34;;;12.31;100.00
20210;BME280;10264;53.178;5.840;2022-07-05T02:04:11;102432.91;;;12.23;100.00
20210;BME280;10264;53.178;5.840;2022-07-05T02:06:38;102438.19;;;12.25;100.00
20210;BME280;10264;53.178;5.840;2022-07-05T02:09:05;102433.00;;;12.19;100.00
20210;BME280;10264;53.178;5.840;2022-07-05T02:11:33;102450.56;;;12.21;100.00
20210;BME280;10264;53.178;5.840;2022-07-05T02:13:59;102459.28;;;12.25;100.00
20210;BME280;10264;53.178;5.840;2022-07-05T02:16:27;102480.19;;;12.37;100.00
20210;BME280;10264;53.178;5.840;2022-07-05T02:18:55;102506.44;;;12.46;100.00
20210;BME280;10264;53.178;5.840;2022-07-05T02:21:21;102566.25;;;12.44;100.00
20210;BME280;10264;53.178;5.840;2022-07-05T02:23:48;102637.53;;;12.40;100.00
20210;BME280;10264;53.178;5.840;2022-07-05T02:26:14;102627.78;;;12.46;100.00
20210;BME280;10264;53.178;5.840;2022-07-05T02:28:42;102626.06;;;12.42;100.00
20210;BME280;10264;53.178;5.840;2022-07-05T02:31:08;102604.13;;;12.39;100.00
20210;BME280;10264;53.178;5.840;2022-07-05T02:33:35;102614.66;;;12.40;100.00
20210;BME280;10264;53.178;5.840;2022-07-05T02:36:10;102625.31;;;12.34;100.00
20210;BME280;10264;53.178;5.840;2022-07-05T02:38:37;102629.69;;;12.35;100.00
20210;BME280;10264;53.178;5.840;2022-07-05T02:41:05;102645.50;;;12.35;100.00
20210;BME280;10264;53.178;5.840;2022-07-05T02:43:33;102660.34;;;12.44;100.00
20210;BME280;10264;53.178;5.840;2022-07-05T02:46:00;102668.16;;;12.51;100.00
20210;BME280;10264;53.178;5.840;2022-07-05T02:48:27;102683.00;;;12.60;100.00
20210;BME280;10264;53.178;5.840;2022-07-05T02:50:53;102694.19;;;12.77;100.00
20210;BME280;10264;53.178;5.840;2022-07-05T02:53:20;102705.53;;;12.85;100.00
20210;BME280;10264;53.178;5.840;2022-07-05T02:55:47;102699.88;;;13.08;100.00
20210;BME280;10264;53.178;5.840;2022-07-05T02:58:13;102697.19;;;13.09;100.00
20210;BME280;10264;53.178;5.840;2022-07-05T03:00:40;102713.69;;;13.27;100.00
20210;BME280;10264;53.178;5.840;2022-07-05T03:03:06;102716.94;;;13.44;100.00
20210;BME280;10264;53.178;5.840;2022-07-05T03:05:33;102739.50;;;13.63;100.00
20210;BME280;10264;53.178;5.840;2022-07-05T03:07:59;102740.34;;;13.67;100.00
20210;BME280;10264;53.178;5.840;2022-07-05T03:10:26;102738.47;;;13.72;100.00
20210;BME280;10264;53.178;5.840;2022-07-05T03:12:52;102744.59;;;13.75;100.00
20210;BME280;10264;53.178;5.840;2022-07-05T03:15:19;102746.25;;;13.81;100.00
20210;BME280;10264;53.178;5.840;2022-07-05T03:17:46;102729.19;;;13.97;100.00
20210;BME280;10264;53.178;5.840;2022-07-05T03:20:12;102736.22;;;13.98;100.00
20210;BME280;10264;53.178;5.840;2022-07-05T03:22:39;102728.97;;;14.09;100.00
20210;BME280;10264;53.178;5.840;2022-07-05T03:25:06;102724.59;;;14.08;100.00
20210;BME280;10264;53.178;5.840;2022-07-05T03:27:32;102722.75;;;14.12;100.00
20210;BME280;10264;53.178;5.840;2022-07-05T03:29:59;102707.63;;;14.18;100.00
20210;BME280;10264;53.178;5.840;2022-07-05T03:32:25;102689.81;;;14.26;100.00
20210;BME280;10264;53.178;5.840;2022-07-05T03:34:52;102683.81;;;14.18;100.00
20210;BME280;10264;53.178;5.840;2022-07-05T03:37:20;102656.81;;;14.01;100.00
20210;BME280;10264;53.178;5.840;2022-07-05T03:39:47;102635.91;;;13.90;100.00
20210;BME280;10264;53.178;5.840;2022-07-05T03:42:13;102614.97;;;13.80;100.00
20210;BME280;10264;53.178;5.840;2022-07-05T03:44:40;102599.22;;;13.74;100.00
20210;BME280;10264;53.178;5.840;2022-07-05T03:47:07;102579.91;;;13.69;100.00
20210;BME280;10264;53.178;5.840;2022-07-05T03:49:33;102570.34;;;13.63;100.00
20210;BME280;10264;53.178;5.840;2022-07-05T03:52:01;102561.41;;;13.69;100.00
20210;BME280;10264;53.178;5.840;2022-07-05T03:54:27;102562.19;;;13.75;100.00
20210;BME280;10264;53.178;5.840;2022-07-05T03:56:54;102549.97;;;13.68;100.00
20210;BME280;10264;53.178;5.840;2022-07-05T03:59:20;102534.22;;;13.64;100.00
20210;BME280;10264;53.178;5.840;2022-07-05T04:01:47;102520.84;;;13.71;100.00
20210;BME280;10264;53.178;5.840;2022-07-05T04:04:13;102526.22;;;13.67;100.00
20210;BME280;10264;53.178;5.840;2022-07-05T04:06:40;102520.00;;;13.69;100.00
20210;BME280;10264;53.178;5.840;2022-07-05T04:09:06;102508.66;;;13.63;100.00
20210;BME280;10264;53.178;5.840;2022-07-05T04:11:33;102500.63;;;13.69;100.00
20210;BME280;10264;53.178;5.840;2022-07-05T04:13:59;102506.75;;;13.71;100.00
20210;BME280;10264;53.178;5.840;2022-07-05T04:16:26;102496.97;;;13.76;100.00
20210;BME280;10264;53.178;5.840;2022-07-05T04:18:53;102484.50;;;13.81;100.00
20210;BME280;10264;53.178;5.840;2022-07-05T04:21:19;102487.28;;;13.75;100.00
20210;BME280;10264;53.178;5.840;2022-07-05T04:23:45;102502.84;;;13.88;100.00
20210;BME280;10264;53.178;5.840;2022-07-05T04:26:12;102492.28;;;13.87;100.00
20210;BME280;10264;53.178;5.840;2022-07-05T04:28:38;102448.22;;;13.87;100.00
20210;BME280;10264;53.178;5.840;2022-07-05T04:31:05;102437.53;;;13.92;100.00
20210;BME280;10264;53.178;5.840;2022-07-05T04:33:31;102432.19;;;13.95;100.00
20210;BME280;10264;53.178;5.840;2022-07-05T04:35:58;102413.59;;;13.98;100.00
20210;BME280;10264;53.178;5.840;2022-07-05T04:38:24;102392.28;;;14.04;100.00
20210;BME280;10264;53.178;5.840;2022-07-05T04:40:51;102378.69;;;14.19;100.00
20210;BME280;10264;53.178;5.840;2022-07-05T04:43:17;102345.88;;;14.26;100.00
20210;BME280;10264;53.178;5.840;2022-07-05T04:45:44;102336.94;;;14.30;100.00
20210;BME280;10264;53.178;5.840;2022-07-05T04:48:10;102330.50;;;14.42;100.00
20210;BME280;10264;53.178;5.840;2022-07-05T04:50:37;102329.34;;;14.52;100.00
20210;BME280;10264;53.178;5.840;2022-07-05T04:53:03;102319.38;;;14.60;100.00
20210;BME280;10264;53.178;5.840;2022-07-05T04:55:30;102319.00;;;14.74;100.00
20210;BME280;10264;53.178;5.840;2022-07-05T04:57:56;102315.81;;;14.92;100.00
20210;BME280;10264;53.178;5.840;2022-07-05T05:00:23;102304.75;;;15.07;100.00
20210;BME280;10264;53.178;5.840;2022-07-05T05:02:50;102296.31;;;15.24;100.00
20210;BME280;10264;53.178;5.840;2022-07-05T05:05:16;102279.16;;;15.36;100.00
20210;BME280;10264;53.178;5.840;2022-07-05T05:07:44;102271.47;;;15.56;100.00
20210;BME280;10264;53.178;5.840;2022-07-05T05:10:11;102252.91;;;15.82;100.00
20210;BME280;10264;53.178;5.840;2022-07-05T05:12:38;102220.28;;;16.05;100.00
20210;BME280;10264;53.178;5.840;2022-07-05T05:15:05;102199.81;;;16.32;100.00
20210;BME280;10264;53.178;5.840;2022-07-05T05:17:37;102167.03;;;16.56;100.00
20210;BME280;10264;53.178;5.840;2022-07-05T05:20:10;102131.53;;;16.82;100.00
20210;BME280;10264;53.178;5.840;2022-07-05T05:22:37;102091.75;;;17.02;100.00
20210;BME280;10264;53.178;5.840;2022-07-05T05:25:04;102056.22;;;17.25;100.00
20210;BME280;10264;53.178;5.840;2022-07-05T05:27:31;102035.06;;;17.42;100.00
20210;BME280;10264;53.178;5.840;2022-07-05T05:29:58;102013.06;;;17.38;100.00
20210;BME280;10264;53.178;5.840;2022-07-05T05:32:24;101996.75;;;17.46;100.00
20210;BME280;10264;53.178;5.840;2022-07-05T05:34:51;101996.84;;;17.83;100.00
20210;BME280;10264;53.178;5.840;2022-07-05T05:37:17;101996.31;;;18.67;100.00
20210;BME280;10264;53.178;5.840;2022-07-05T05:39:45;101999.53;;;20.07;100.00
20210;BME280;10264;53.178;5.840;2022-07-05T05:42:13;102013.84;;;21.28;100.00
20210;BME280;10264;53.178;5.840;2022-07-05T05:44:40;102033.66;;;22.65;100.00
20210;BME280;10264;53.178;5.840;2022-07-05T05:47:06;102091.09;;;24.04;100.00
20210;BME280;10264;53.178;5.840;2022-07-05T05:49:38;102154.19;;;24.73;100.00
20210;BME280;10264;53.178;5.840;2022-07-05T05:52:05;102203.66;;;24.96;100.00
20210;BME280;10264;53.178;5.840;2022-07-05T05:54:31;102239.41;;;25.22;100.00
20210;BME280;10264;53.178;5.840;2022-07-05T05:56:58;102275.91;;;26.08;100.00
20210;BME280;10264;53.178;5.840;2022-07-05T05:59:24;102304.69;;;26.54;100.00
20210;BME280;10264;53.178;5.840;2022-07-05T06:01:53;102317.81;;;26.58;100.00
20210;BME280;10264;53.178;5.840;2022-07-05T06:04:20;102309.50;;;26.83;100.00
20210;BME280;10264;53.178;5.840;2022-07-05T06:06:48;102316.03;;;25.89;100.00
20210;BME280;10264;53.178;5.840;2022-07-05T06:09:19;102316.19;;;26.10;100.00
20210;BME280;10264;53.178;5.840;2022-07-05T06:11:47;102343.19;;;26.67;100.00
20210;BME280;10264;53.178;5.840;2022-07-05T06:14:13;102342.97;;;25.89;100.00
20210;BME280;10264;53.178;5.840;2022-07-05T06:16:40;102363.88;;;27.23;100.00
20210;BME280;10264;53.178;5.840;2022-07-05T06:19:06;102365.34;;;27.27;100.00
20210;BME280;10264;53.178;5.840;2022-07-05T06:21:38;102384.00;;;28.28;100.00
20210;BME280;10264;53.178;5.840;2022-07-05T06:24:05;102393.56;;;28.52;100.00
20210;BME280;10264;53.178;5.840;2022-07-05T06:26:40;102388.78;;;27.92;100.00
20210;BME280;10264;53.178;5.840;2022-07-05T06:29:07;102384.06;;;28.05;100.00
20210;BME280;10264;53.178;5.840;2022-07-05T06:31:38;102398.66;;;28.46;100.00
20210;BME280;10264;53.178;5.840;2022-07-05T06:34:07;102371.63;;;26.14;100.00
20210;BME280;10264;53.178;5.840;2022-07-05T06:36:44;102336.13;;;24.61;100.00
20210;BME280;10264;53.178;5.840;2022-07-05T06:39:13;102337.19;;;25.22;100.00
20210;BME280;10264;53.178;5.840;2022-07-05T06:41:42;102380.28;;;26.87;100.00
20210;BME280;10264;53.178;5.840;2022-07-05T06:44:13;102393.56;;;26.90;100.00
20210;BME280;10264;53.178;5.840;2022-07-05T06:47:00;102416.72;;;28.77;100.00
20210;BME280;10264;53.178;5.840;2022-07-05T06:49:41;102422.16;;;29.17;100.00
20210;BME280;10264;53.178;5.840;2022-07-05T06:52:12;102427.56;;;29.78;100.00
20210;BME280;10264;53.178;5.840;2022-07-05T06:54:50;102414.44;;;27.98;100.00
20210;BME280;10264;53.178;5.840;2022-07-05T06:57:55;102405.22;;;25.73;100.00
20210;BME280;10264;53.178;5.840;2022-07-05T07:00:45;102408.97;;;26.07;100.00
20210;BME280;10264;53.178;5.840;2022-07-05T07:03:35;102418.28;;;26.62;100.00
20210;BME280;10264;53.178;5.840;2022-07-05T07:06:27;102443.53;;;29.11;100.00
20210;BME280;10264;53.178;5.840;2022-07-05T07:09:03;102401.34;;;26.60;100.00
20210;BME280;10264;53.178;5.840;2022-07-05T07:11:31;102426.22;;;27.20;100.00
20210;BME280;10264;53.178;5.840;2022-07-05T07:14:05;102411.81;;;26.40;100.00
20210;BME280;10264;53.178;5.840;2022-07-05T07:19:48;102440.97;;;27.50;100.00
20210;BME280;10264;53.178;5.840;2022-07-05T07:22:15;102437.75;;;27.45;100.00
20210;BME280;10264;53.178;5.840;2022-07-05T07:24:43;102447.63;;;28.00;100.00
20210;BME280;10264;53.178;5.840;2022-07-05T07:27:11;102471.44;;;30.02;100.00
20210;BME280;10264;53.178;5.840;2022-07-05T07:29:54;102415.59;;;26.14;100.00
20210;BME280;10264;53.178;5.840;2022-07-05T07:32:21;102444.97;;;27.77;100.00
20210;BME280;10264;53.178;5.840;2022-07-05T07:34:48;102456.41;;;28.97;100.00
20210;BME280;10264;53.178;5.840;2022-07-05T07:37:18;102471.91;;;29.77;100.00
20210;BME280;10264;53.178;5.840;2022-07-05T07:39:47;102460.03;;;29.08;100.00
20210;BME280;10264;53.178;5.840;2022-07-05T07:42:16;102467.00;;;29.92;100.00
20210;BME280;10264;53.178;5.840;2022-07-05T07:44:43;102459.63;;;29.63;100.00
20210;BME280;10264;53.178;5.840;2022-07-05T07:47:10;102479.59;;;30.89;100.00
20210;BME280;10264;53.178;5.840;2022-07-05T07:49:38;102477.47;;;30.63;100.00
20210;BME280;10264;53.178;5.840;2022-07-05T07:52:29;102459.75;;;29.01;100.00
20210;BME280;10264;53.178;5.840;2022-07-05T07:55:16;102464.31;;;28.16;100.00
20210;BME280;10264;53.178;5.840;2022-07-05T07:58:02;102474.59;;;29.67;100.00
20210;BME280;10264;53.178;5.840;2022-07-05T08:03:22;102522.72;;;32.39;92.29
20210;BME280;10264;53.178;5.840;2022-07-05T08:05:52;102472.41;;;29.92;100.00
20210;BME280;10264;53.178;5.840;2022-07-05T08:08:28;102493.88;;;30.91;99.83
20210;BME280;10264;53.178;5.840;2022-07-05T08:11:01;102493.28;;;31.16;96.82
20210;BME280;10264;53.178;5.840;2022-07-05T08:13:43;102482.03;;;30.44;100.00
20210;BME280;10264;53.178;5.840;2022-07-05T08:16:16;102483.03;;;30.71;100.00
20210;BME280;10264;53.178;5.840;2022-07-05T08:18:57;102463.56;;;27.49;100.00
20210;BME280;10264;53.178;5.840;2022-07-05T08:21:32;102454.53;;;26.46;100.00
20210;BME280;10264;53.178;5.840;2022-07-05T08:24:22;102470.06;;;29.17;100.00
20210;BME280;10264;53.178;5.840;2022-07-05T08:27:03;102445.63;;;26.33;100.00
20210;BME280;10264;53.178;5.840;2022-07-05T08:29:42;102434.75;;;23.68;100.00
20210;BME280;10264;53.178;5.840;2022-07-05T08:32:13;102460.25;;;26.18;100.00
20210;BME280;10264;53.178;5.840;2022-07-05T08:34:40;102467.50;;;26.41;100.00
20210;BME280;10264;53.178;5.840;2022-07-05T08:37:09;102468.19;;;27.24;100.00
20210;BME280;10264;53.178;5.840;2022-07-05T08:39:41;102481.00;;;29.06;100.00
20210;BME280;10264;53.178;5.840;2022-07-05T08:42:09;102481.16;;;29.74;100.00
20210;BME280;10264;53.178;5.840;2022-07-05T08:44:46;102475.47;;;30.46;100.00
20210;BME280;10264;53.178;5.840;2022-07-05T08:47:20;102505.16;;;31.89;100.00
20210;BME280;10264;53.178;5.840;2022-07-05T08:49:47;102508.03;;;32.05;94.58
20210;BME280;10264;53.178;5.840;2022-07-05T08:52:17;102504.53;;;31.68;86.83
20210;BME280;10264;53.178;5.840;2022-07-05T08:54:53;102532.28;;;32.97;87.95
20210;BME280;10264;53.178;5.840;2022-07-05T08:57:29;102526.28;;;32.58;89.19
20210;BME280;10264;53.178;5.840;2022-07-05T09:00:00;102481.88;;;30.16;93.29
20210;BME280;10264;53.178;5.840;2022-07-05T09:02:29;102473.56;;;27.02;100.00
20210;BME280;10264;53.178;5.840;2022-07-05T09:05:20;102455.22;;;24.63;100.00
20210;BME280;10264;53.178;5.840;2022-07-05T09:08:03;102484.00;;;26.72;100.00
20210;BME280;10264;53.178;5.840;2022-07-05T09:10:51;102488.72;;;28.89;100.00
20210;BME280;10264;53.178;5.840;2022-07-05T09:13:19;102513.09;;;29.61;99.92
20210;BME280;10264;53.178;5.840;2022-07-05T09:15:50;102513.22;;;29.29;96.63
20210;BME280;10264;53.178;5.840;2022-07-05T09:18:52;102478.75;;;27.16;100.00
20210;BME280;10264;53.178;5.840;2022-07-05T09:21:30;102456.59;;;23.76;100.00
20210;BME280;10264;53.178;5.840;2022-07-05T09:24:07;102460.91;;;22.64;100.00
20210;BME280;10264;53.178;5.840;2022-07-05T09:26:37;102459.38;;;23.18;100.00
20210;BME280;10264;53.178;5.840;2022-07-05T09:29:21;102492.13;;;25.01;100.00
20210;BME280;10264;53.178;5.840;2022-07-05T09:32:07;102494.28;;;25.21;100.00
20210;BME280;10264;53.178;5.840;2022-07-05T09:34:33;102528.69;;;28.76;100.00
20210;BME280;10264;53.178;5.840;2022-07-05T09:37:02;102505.63;;;29.02;100.00
20210;BME280;10264;53.178;5.840;2022-07-05T09:44:45;102516.88;;;29.79;100.00
20210;BME280;10264;53.178;5.840;2022-07-05T09:47:14;102513.16;;;29.80;100.00
20210;BME280;10264;53.178;5.840;2022-07-05T09:49:43;102498.38;;;27.96;100.00
20210;BME280;10264;53.178;5.840;2022-07-05T09:52:40;102508.91;;;29.48;100.00
20210;BME280;10264;53.178;5.840;2022-07-05T09:55:16;102497.28;;;28.53;100.00
20210;BME280;10264;53.178;5.840;2022-07-05T09:57:44;102499.50;;;28.48;100.00
20210;BME280;10264;53.178;5.840;2022-07-05T10:00:19;102531.25;;;30.01;100.00
20210;BME280;10264;53.178;5.840;2022-07-05T10:02:47;102539.63;;;30.66;100.00
20210;BME280;10264;53.178;5.840;2022-07-05T10:07:44;102516.19;;;29.87;97.55
20210;BME280;10264;53.178;5.840;2022-07-05T10:10:30;102538.63;;;30.87;97.16
20210;BME280;10264;53.178;5.840;2022-07-05T10:12:59;102497.66;;;28.69;100.00
20210;BME280;10264;53.178;5.840;2022-07-05T10:15:36;102503.53;;;28.22;100.00
20210;BME280;10264;53.178;5.840;2022-07-05T10:18:05;102487.59;;;27.29;100.00
20210;BME280;10264;53.178;5.840;2022-07-05T10:20:43;102509.63;;;28.35;100.00
20210;BME280;10264;53.178;5.840;2022-07-05T10:23:12;102523.41;;;29.37;100.00
20210;BME280;10264;53.178;5.840;2022-07-05T10:25:42;102522.69;;;29.75;99.93
20210;BME280;10264;53.178;5.840;2022-07-05T10:28:10;102501.94;;;28.08;100.00
20210;BME280;10264;53.178;5.840;2022-07-05T10:30:37;102524.66;;;28.91;100.00
20210;BME280;10264;53.178;5.840;2022-07-05T10:33:06;102503.06;;;27.94;100.00
20210;BME280;10264;53.178;5.840;2022-07-05T10:35:34;102538.56;;;29.79;100.00
20210;BME280;10264;53.178;5.840;2022-07-05T10:38:01;102524.94;;;29.60;100.00
20210;BME280;10264;53.178;5.840;2022-07-05T10:40:30;102545.78;;;31.07;99.78
20210;BME280;10264;53.178;5.840;2022-07-05T10:43:00;102518.44;;;28.48;100.00
20210;BME280;10264;53.178;5.840;2022-07-05T10:45:34;102491.97;;;25.78;100.00
20210;BME280;10264;53.178;5.840;2022-07-05T10:48:26;102498.22;;;23.83;100.00
20210;BME280;10264;53.178;5.840;2022-07-05T10:58:30;102467.81;;;21.75;100.00
20210;BME280;10264;53.178;5.840;2022-07-05T11:03:46;102472.13;;;21.62;100.00
20210;BME280;10264;53.178;5.840;2022-07-05T11:06:20;102454.00;;;21.18;100.00
20210;BME280;10264;53.178;5.840;2022-07-05T11:16:46;102484.50;;;21.80;100.00
20210;BME280;10264;53.178;5.840;2022-07-05T11:19:15;102481.00;;;21.47;100.00
20210;BME280;10264;53.178;5.840;2022-07-05T11:22:02;102492.03;;;22.05;100.00
20210;BME280;10264;53.178;5.840;2022-07-05T11:24:30;102501.97;;;21.39;100.00
20210;BME280;10264;53.178;5.840;2022-07-05T11:26:58;102498.44;;;21.21;100.00
20210;BME280;10264;53.178;5.840;2022-07-05T11:29:45;102506.63;;;21.51;100.00
20210;BME280;10264;53.178;5.840;2022-07-05T11:34:54;102514.31;;;22.37;100.00
20210;BME280;10264;53.178;5.840;2022-07-05T11:37:25;102515.03;;;22.09;100.00
20210;BME280;10264;53.178;5.840;2022-07-05T11:42:33;102510.63;;;21.59;100.00
20210;BME280;10264;53.178;5.840;2022-07-05T11:45:00;102506.19;;;21.43;100.00
20210;BME280;10264;53.178;5.840;2022-07-05T11:47:34;102518.41;;;21.64;100.00
20210;BME280;10264;53.178;5.840;2022-07-05T11:50:09;102506.81;;;21.48;100.00
20210;BME280;10264;53.178;5.840;2022-07-05T11:52:36;102505.38;;;21.58;100.00
20210;BME280;10264;53.178;5.840;2022-07-05T11:55:05;102517.16;;;21.04;100.00
20210;BME280;10264;53.178;5.840;2022-07-05T11:57:32;102515.97;;;21.44;100.00
20210;BME280;10264;53.178;5.840;2022-07-05T11:59:59;102512.34;;;21.10;100.00
20210;BME280;10264;53.178;5.840;2022-07-05T12:02:25;102518.38;;;21.48;100.00
20210;BME280;10264;53.178;5.840;2022-07-05T12:04:54;102529.69;;;22.02;100.00
20210;BME280;10264;53.178;5.840;2022-07-05T12:07:31;102520.66;;;22.66;100.00
20210;BME280;10264;53.178;5.840;2022-07-05T12:09:59;102528.47;;;22.70;100.00
20210;BME280;10264;53.178;5.840;2022-07-05T12:12:26;102516.50;;;21.99;100.00
20210;BME280;10264;53.178;5.840;2022-07-05T12:14:59;102523.66;;;21.98;100.00
20210;BME280;10264;53.178;5.840;2022-07-05T12:17:34;102515.31;;;21.87;100.00
20210;BME280;10264;53.178;5.840;2022-07-05T12:20:07;102525.50;;;21.65;100.00
20210;BME280;10264;53.178;5.840;2022-07-05T12:22:46;102514.16;;;22.08;100.00
20210;BME280;10264;53.178;5.840;2022-07-05T12:25:27;102540.06;;;23.00;100.00
20210;BME280;10264;53.178;5.840;2022-07-05T12:28:00;102536.38;;;22.87;100.00
20210;BME280;10264;53.178;5.840;2022-07-05T12:31:13;102538.97;;;22.28;100.00
20210;BME280;10264;53.178;5.840;2022-07-05T12:33:51;102514.69;;;21.99;100.00
20210;BME280;10264;53.178;5.840;2022-07-05T12:36:27;102517.25;;;22.16;100.00
20210;BME280;10264;53.178;5.840;2022-07-05T12:39:06;102532.28;;;22.96;100.00
20210;BME280;10264;53.178;5.840;2022-07-05T12:41:35;102545.13;;;23.92;100.00
20210;BME280;10264;53.178;5.840;2022-07-05T12:44:18;102527.09;;;23.51;100.00
20210;BME280;10264;53.178;5.840;2022-07-05T12:46:48;102537.84;;;23.51;100.00
20210;BME280;10264;53.178;5.840;2022-07-05T12:49:18;102529.56;;;23.40;100.00
20210;BME280;10264;53.178;5.840;2022-07-05T12:52:05;102533.09;;;23.26;100.00
20210;BME280;10264;53.178;5.840;2022-07-05T12:54:53;102529.44;;;22.83;100.00
20210;BME280;10264;53.178;5.840;2022-07-05T12:57:48;102527.09;;;22.32;100.00
20210;BME280;10264;53.178;5.840;2022-07-05T13:00:18;102512.97;;;21.65;100.00
20210;BME280;10264;53.178;5.840;2022-07-05T13:02:46;102500.97;;;21.88;100.00
20210;BME280;10264;53.178;5.840;2022-07-05T13:05:26;102526.31;;;22.45;100.00
20210;BME280;10264;53.178;5.840;2022-07-05T13:07:58;102532.19;;;22.52;100.00
20210;BME280;10264;53.178;5.840;2022-07-05T13:10:45;102512.94;;;21.50;100.00
20210;BME280;10264;53.178;5.840;2022-07-05T13:13:28;102529.06;;;21.81;100.00
20210;BME280;10264;53.178;5.840;2022-07-05T13:16:17;102527.22;;;21.99;100.00
20210;BME280;10264;53.178;5.840;2022-07-05T13:18:45;102523.31;;;22.04;100.00
20210;BME280;10264;53.178;5.840;2022-07-05T13:21:17;102536.28;;;21.96;100.00
20210;BME280;10264;53.178;5.840;2022-07-05T13:24:07;102533.66;;;22.57;100.00
20210;BME280;10264;53.178;5.840;2022-07-05T13:29:55;102537.22;;;22.27;100.00
20210;BME280;10264;53.178;5.840;2022-07-05T13:32:28;102542.06;;;22.04;100.00
20210;BME280;10264;53.178;5.840;2022-07-05T13:35:05;102533.19;;;22.20;100.00
20210;BME280;10264;53.178;5.840;2022-07-05T13:37:33;102542.91;;;22.21;100.00
20210;BME280;10264;53.178;5.840;2022-07-05T13:40:20;102536.00;;;21.52;100.00